createdAt,value
2022-12-14T00:01:57.933Z,-7.70
2022-12-14T00:04:25.887Z,-7.70
2022-12-14T00:06:53.969Z,-7.67
2022-12-14T00:09:21.900Z,-7.62
2022-12-14T00:11:51.201Z,-7.60
2022-12-14T00:14:19.243Z,-7.59
2022-12-14T00:16:48.217Z,-7.60
2022-12-14T00:19:16.333Z,-7.59
2022-12-14T00:21:44.256Z,-7.59
2022-12-14T00:24:12.239Z,-7.59
2022-12-14T00:26:40.125Z,-7.61
2022-12-14T00:29:08.184Z,-7.65
2022-12-14T00:31:36.583Z,-7.67
2022-12-14T00:34:04.677Z,-7.71
2022-12-14T00:36:32.791Z,-7.74
2022-12-14T00:39:00.786Z,-7.76
2022-12-14T00:41:28.808Z,-7.81
2022-12-14T00:43:57.205Z,-7.84
2022-12-14T00:46:25.355Z,-7.86
2022-12-14T00:48:53.643Z,-7.87
2022-12-14T00:51:23.464Z,-7.87
2022-12-14T00:53:51.434Z,-7.87
2022-12-14T00:56:19.390Z,-7.88
2022-12-14T00:58:51.917Z,-7.91
2022-12-14T01:01:20.806Z,-7.94
2022-12-14T01:03:49.425Z,-7.99
2022-12-14T01:06:22.736Z,-8.04
2022-12-14T01:08:50.814Z,-8.08
2022-12-14T01:11:18.819Z,-8.12
2022-12-14T01:13:49.506Z,-8.15
2022-12-14T01:16:18.298Z,-8.17
2022-12-14T01:18:46.441Z,-8.18
2022-12-14T01:21:22.941Z,-8.20
2022-12-14T01:23:59.499Z,-8.23
2022-12-14T01:26:30.451Z,-8.23
2022-12-14T01:29:00.181Z,-8.25
2022-12-14T01:31:31.161Z,-8.26
2022-12-14T01:34:00.036Z,-8.28
2022-12-14T01:36:30.952Z,-8.32
2022-12-14T01:39:01.310Z,-8.36
2022-12-14T01:41:42.134Z,-8.38
2022-12-14T01:44:10.229Z,-8.38
2022-12-14T01:47:12.730Z,-8.41
2022-12-14T01:50:10.745Z,-8.40
2022-12-14T01:52:44.122Z,-8.41
2022-12-14T01:55:37.813Z,-8.41
2022-12-14T01:58:21.196Z,-8.43
2022-12-14T02:00:53.694Z,-8.47
2022-12-14T02:03:24.475Z,-8.47
2022-12-14T02:06:01.274Z,-8.51
2022-12-14T02:08:30.158Z,-8.51
2022-12-14T02:10:59.026Z,-8.52
2022-12-14T02:13:32.324Z,-8.51
2022-12-14T02:16:01.247Z,-8.49
2022-12-14T02:18:31.615Z,-8.48
2022-12-14T02:20:59.501Z,-8.47
2022-12-14T02:23:41.290Z,-8.44
2022-12-14T02:26:40.413Z,-8.40
2022-12-14T02:29:31.333Z,-8.36
2022-12-14T02:32:19.941Z,-8.31
2022-12-14T02:34:53.734Z,-8.26
2022-12-14T02:37:49.130Z,-8.21
2022-12-14T02:40:38.920Z,-8.16
2022-12-14T02:43:43.325Z,-8.12
2022-12-14T02:46:20.368Z,-8.08
2022-12-14T02:48:57.412Z,-8.05
2022-12-14T02:51:40.580Z,-8.01
2022-12-14T02:54:38.259Z,-7.96
2022-12-14T02:57:32.646Z,-7.91
2022-12-14T03:00:03.596Z,-7.89
2022-12-14T03:02:35.791Z,-7.88
2022-12-14T03:05:07.080Z,-7.84
2022-12-14T03:07:45.199Z,-7.79
2022-12-14T03:10:32.616Z,-7.76
2022-12-14T03:13:06.579Z,-7.71
2022-12-14T03:15:38.408Z,-7.67
2022-12-14T03:18:08.191Z,-7.64
2022-12-14T03:20:38.286Z,-7.64
2022-12-14T03:23:15.570Z,-7.62
2022-12-14T03:25:58.708Z,-7.63
2022-12-14T03:28:32.676Z,-7.62
2022-12-14T03:31:09.209Z,-7.55
2022-12-14T03:33:39.002Z,-7.51
2022-12-14T03:36:19.936Z,-7.48
2022-12-14T03:38:51.029Z,-7.49
2022-12-14T03:41:34.598Z,-7.52
2022-12-14T03:44:16.218Z,-7.58
2022-12-14T03:47:13.165Z,-7.64
2022-12-14T03:50:00.804Z,-7.68
2022-12-14T03:52:42.954Z,-7.72
2022-12-14T03:55:29.848Z,-7.76
2022-12-14T03:58:16.221Z,-7.75
2022-12-14T04:01:11.509Z,-7.73
2022-12-14T04:03:49.183Z,-7.72
2022-12-14T04:06:26.069Z,-7.68
2022-12-14T04:09:11.904Z,-7.67
2022-12-14T04:12:06.611Z,-7.63
2022-12-14T04:15:03.840Z,-7.61
2022-12-14T04:17:55.419Z,-7.56
2022-12-14T04:20:42.273Z,-7.53
2022-12-14T04:23:16.681Z,-7.48
2022-12-14T04:26:05.557Z,-7.44
2022-12-14T04:29:12.154Z,-7.39
2022-12-14T04:31:45.764Z,-7.35
2022-12-14T04:34:23.334Z,-7.30
2022-12-14T04:36:56.819Z,-7.27
2022-12-14T04:39:31.158Z,-7.24
2022-12-14T04:42:02.545Z,-7.22
2022-12-14T04:44:40.229Z,-7.18
2022-12-14T04:47:11.348Z,-7.16
2022-12-14T04:49:46.800Z,-7.13
2022-12-14T04:52:45.381Z,-7.10
2022-12-14T04:55:30.334Z,-7.07
2022-12-14T04:58:12.420Z,-7.06
2022-12-14T05:00:58.904Z,-7.05
2022-12-14T05:03:34.569Z,-7.04
2022-12-14T05:06:11.348Z,-7.05
2022-12-14T05:09:06.401Z,-7.04
2022-12-14T05:11:59.243Z,-7.04
2022-12-14T05:14:46.914Z,-7.00
2022-12-14T05:17:16.525Z,-6.98
2022-12-14T05:19:49.814Z,-6.95
2022-12-14T05:22:19.025Z,-6.94
2022-12-14T05:24:47.021Z,-6.93
2022-12-14T05:27:15.150Z,-6.92
2022-12-14T05:29:43.178Z,-6.90
2022-12-14T05:32:14.151Z,-6.87
2022-12-14T05:34:42.201Z,-6.84
2022-12-14T05:37:16.395Z,-6.83
2022-12-14T05:39:46.523Z,-6.81
2022-12-14T05:42:14.565Z,-6.78
2022-12-14T05:44:43.502Z,-6.75
2022-12-14T05:47:11.483Z,-6.72
2022-12-14T05:49:40.289Z,-6.71
2022-12-14T05:52:08.549Z,-6.73
2022-12-14T05:54:36.611Z,-6.66
2022-12-14T05:57:06.987Z,-6.60
2022-12-14T05:59:35.318Z,-6.55
2022-12-14T06:02:03.436Z,-6.50
2022-12-14T06:04:31.623Z,-6.47
2022-12-14T06:06:59.849Z,-6.42
2022-12-14T06:09:27.900Z,-6.41
2022-12-14T06:11:55.877Z,-6.39
2022-12-14T06:14:25.416Z,-6.38
2022-12-14T06:16:53.555Z,-6.29
2022-12-14T06:19:21.937Z,-6.26
2022-12-14T06:21:50.350Z,-6.22
2022-12-14T06:24:18.420Z,-6.20
2022-12-14T06:26:47.043Z,-6.13
2022-12-14T06:29:19.682Z,-6.08
2022-12-14T06:31:49.098Z,-6.07
2022-12-14T06:34:22.226Z,-6.01
2022-12-14T06:36:52.950Z,-5.93
2022-12-14T06:39:21.052Z,-5.86
2022-12-14T06:41:51.156Z,-5.79
2022-12-14T06:44:19.294Z,-5.74
2022-12-14T06:46:47.967Z,-5.85
2022-12-14T06:49:20.049Z,-5.79
2022-12-14T06:51:49.230Z,-5.71
2022-12-14T06:54:18.683Z,-5.83
2022-12-14T06:56:48.573Z,-5.73
2022-12-14T06:59:17.556Z,-5.67
2022-12-14T07:01:46.249Z,-5.59
2022-12-14T07:04:21.640Z,-5.48
2022-12-14T07:06:52.782Z,-5.42
2022-12-14T07:09:21.514Z,-5.34
2022-12-14T07:11:51.588Z,-5.23
2022-12-14T07:14:21.459Z,-5.15
2022-12-14T07:16:50.335Z,-5.10
2022-12-14T07:19:18.738Z,-5.01
2022-12-14T07:21:46.797Z,-4.94
2022-12-14T07:24:15.507Z,-4.86
2022-12-14T07:26:43.682Z,-4.82
2022-12-14T07:29:12.321Z,-4.79
2022-12-14T07:31:41.035Z,-4.80
2022-12-14T07:34:13.044Z,-4.79
2022-12-14T07:36:43.307Z,-4.77
2022-12-14T07:39:15.728Z,-4.66
2022-12-14T07:41:47.100Z,-4.60
2022-12-14T07:44:20.260Z,-4.46
2022-12-14T07:46:48.475Z,-4.51
2022-12-14T07:49:16.877Z,-4.46
2022-12-14T07:51:46.716Z,-4.39
2022-12-14T07:54:14.859Z,-4.31
2022-12-14T07:56:43.726Z,-4.30
2022-12-14T07:59:17.697Z,-4.15
2022-12-14T08:01:46.122Z,-4.07
2022-12-14T08:04:19.304Z,-4.14
2022-12-14T08:06:54.925Z,-4.10
2022-12-14T08:09:22.807Z,-3.97
2022-12-14T08:11:52.188Z,-3.82
2022-12-14T08:14:20.464Z,-3.75
2022-12-14T08:16:50.466Z,-3.65
2022-12-14T08:19:21.534Z,-3.61
2022-12-14T08:21:49.555Z,-3.54
2022-12-14T08:24:20.110Z,-3.53
2022-12-14T08:26:49.904Z,-3.56
2022-12-14T08:29:22.529Z,-3.42
2022-12-14T08:31:50.724Z,-3.39
2022-12-14T08:34:23.062Z,-3.26
2022-12-14T08:36:51.528Z,-3.18
2022-12-14T08:39:19.826Z,-3.06
2022-12-14T08:41:50.023Z,-2.86
2022-12-14T08:44:19.039Z,-2.97
2022-12-14T08:46:48.208Z,-2.81
2022-12-14T08:49:18.782Z,-2.72
2022-12-14T08:51:46.807Z,-2.69
2022-12-14T08:54:15.398Z,-2.65
2022-12-14T08:56:43.587Z,-2.56
2022-12-14T08:59:29.921Z,-2.67
2022-12-14T09:02:01.342Z,-2.44
2022-12-14T09:04:29.809Z,-2.43
2022-12-14T09:06:58.138Z,-2.29
2022-12-14T09:09:27.390Z,-2.17
2022-12-14T09:11:55.569Z,-2.17
2022-12-14T09:14:24.097Z,-2.02
2022-12-14T09:16:53.731Z,-1.95
2022-12-14T09:19:22.026Z,-1.85
2022-12-14T09:21:51.857Z,-1.84
2022-12-14T09:24:20.637Z,-1.95
2022-12-14T09:26:52.883Z,-1.81
2022-12-14T09:29:21.088Z,-1.79
2022-12-14T09:31:49.370Z,-1.91
2022-12-14T09:34:17.631Z,-1.91
2022-12-14T09:36:46.007Z,-1.87
2022-12-14T09:39:15.165Z,-1.82
2022-12-14T09:42:19.484Z,-1.73
2022-12-14T09:45:17.837Z,-1.74
2022-12-14T09:48:04.295Z,-1.84
2022-12-14T09:50:33.878Z,-1.77
2022-12-14T09:53:06.472Z,-1.67
2022-12-14T09:55:50.248Z,-1.73
2022-12-14T09:58:30.254Z,-1.72
2022-12-14T10:01:23.431Z,-1.78
2022-12-14T10:04:28.954Z,-1.57
2022-12-14T10:07:07.303Z,-1.56
2022-12-14T10:09:55.737Z,-1.39
2022-12-14T10:12:32.522Z,-1.28
2022-12-14T10:15:09.434Z,-1.23
2022-12-14T10:18:06.987Z,-1.18
2022-12-14T10:20:48.545Z,-1.12
2022-12-14T10:23:23.927Z,-1.14
2022-12-14T10:26:01.557Z,-1.27
2022-12-14T10:28:33.415Z,-1.08
2022-12-14T10:31:05.498Z,-1.12
2022-12-14T10:33:33.583Z,-0.94
2022-12-14T10:36:30.969Z,-0.81
2022-12-14T10:39:02.201Z,-0.73
2022-12-14T10:41:36.503Z,-0.63
2022-12-14T10:44:05.189Z,-0.54
2022-12-14T10:46:59.727Z,-0.46
2022-12-14T10:49:45.037Z,-0.42
2022-12-14T10:52:19.369Z,-0.32
2022-12-14T10:54:54.825Z,-0.38
2022-12-14T10:57:29.418Z,-0.28
2022-12-14T11:00:09.481Z,-0.29
2022-12-14T11:02:45.855Z,-0.24
2022-12-14T11:05:45.025Z,-0.40
2022-12-14T11:08:38.813Z,-0.27
2022-12-14T11:11:13.970Z,-0.26
2022-12-14T11:14:06.244Z,-0.19
2022-12-14T11:16:37.280Z,-0.21
2022-12-14T11:19:15.912Z,-0.37
2022-12-14T11:21:44.600Z,-0.39
2022-12-14T11:24:27.992Z,-0.50
2022-12-14T11:27:01.620Z,-0.70
2022-12-14T11:29:35.776Z,-0.66
2022-12-14T11:32:06.020Z,-0.60
2022-12-14T11:34:43.947Z,-0.71
2022-12-14T11:37:22.490Z,-0.72
2022-12-14T11:40:00.385Z,-0.73
2022-12-14T11:42:29.472Z,-0.65
2022-12-14T11:45:26.973Z,-0.56
2022-12-14T11:48:17.386Z,-0.45
2022-12-14T11:50:47.844Z,-0.57
2022-12-14T11:53:19.757Z,-0.47
2022-12-14T11:55:59.203Z,-0.62
2022-12-14T11:58:51.683Z,-0.44
2022-12-14T12:01:27.438Z,-0.41
2022-12-14T12:03:59.341Z,-0.22
2022-12-14T12:06:30.079Z,-0.03
2022-12-14T12:09:02.812Z,0.02
2022-12-14T12:11:34.364Z,0.05
2022-12-14T12:14:35.646Z,0.11
2022-12-14T12:17:18.158Z,0.21
2022-12-14T12:19:51.625Z,0.34
2022-12-14T12:22:20.859Z,0.20
2022-12-14T12:25:29.726Z,0.09
2022-12-14T12:28:11.528Z,0.26
2022-12-14T12:30:43.300Z,0.37
2022-12-14T12:33:22.847Z,0.33
2022-12-14T12:35:55.317Z,0.37
2022-12-14T12:38:37.712Z,0.45
2022-12-14T12:41:27.526Z,0.47
2022-12-14T12:44:27.244Z,0.46
2022-12-14T12:47:26.836Z,0.59
2022-12-14T12:50:13.406Z,0.66
2022-12-14T12:53:39.099Z,0.70
2022-12-14T12:56:25.510Z,0.59
2022-12-14T12:58:55.122Z,0.49
2022-12-14T13:01:31.643Z,0.42
2022-12-14T13:04:05.966Z,0.16
2022-12-14T13:06:44.906Z,0.13
2022-12-14T13:09:42.287Z,0.03
2022-12-14T13:12:39.318Z,-0.10
2022-12-14T13:15:34.402Z,-0.13
2022-12-14T13:18:12.281Z,-0.23
2022-12-14T13:20:42.805Z,-0.20
2022-12-14T13:23:43.777Z,-0.27
2022-12-14T13:26:56.730Z,-0.38
2022-12-14T13:29:31.261Z,-0.41
2022-12-14T13:32:18.156Z,-0.40
2022-12-14T13:35:04.653Z,-0.44
2022-12-14T13:37:48.047Z,-0.46
2022-12-14T13:40:41.623Z,-0.59
2022-12-14T13:43:34.026Z,-0.60
2022-12-14T13:46:24.056Z,-0.77
2022-12-14T13:48:56.950Z,-0.81
2022-12-14T13:51:38.276Z,-0.80
2022-12-14T13:54:20.713Z,-0.86
2022-12-14T13:57:09.870Z,-0.91
2022-12-14T13:59:43.980Z,-0.98
2022-12-14T14:02:29.643Z,-0.97
2022-12-14T14:05:16.427Z,-1.00
2022-12-14T14:08:32.298Z,-1.02
2022-12-14T14:11:38.366Z,-1.06
2022-12-14T14:14:39.014Z,-1.09
2022-12-14T14:17:26.987Z,-1.17
2022-12-14T14:20:05.140Z,-1.11
2022-12-14T14:22:33.109Z,-1.12
2022-12-14T14:25:09.483Z,-1.15
2022-12-14T14:27:50.274Z,-1.16
2022-12-14T14:30:28.855Z,-1.17
2022-12-14T14:33:19.967Z,-1.23
2022-12-14T14:35:49.683Z,-1.22
2022-12-14T14:38:29.628Z,-1.23
2022-12-14T14:41:19.203Z,-1.24
2022-12-14T14:43:52.586Z,-1.22
2022-12-14T14:46:39.443Z,-1.16
2022-12-14T14:49:23.256Z,-1.20
2022-12-14T14:51:51.403Z,-1.17
2022-12-14T14:57:37.624Z,-1.14
2022-12-14T15:00:10.896Z,-1.11
2022-12-14T15:02:43.319Z,-1.13
2022-12-14T15:08:38.603Z,-1.11
2022-12-14T15:11:16.112Z,-1.17
2022-12-14T15:13:55.187Z,-1.18
2022-12-14T15:16:29.498Z,-1.20
2022-12-14T15:19:20.757Z,-1.24
2022-12-14T15:21:51.935Z,-1.22
2022-12-14T15:24:21.863Z,-1.18
2022-12-14T15:26:50.302Z,-1.20
2022-12-14T15:29:27.842Z,-1.21
2022-12-14T15:32:00.660Z,-1.18
2022-12-14T15:34:28.912Z,-1.16
2022-12-14T15:36:58.017Z,-1.11
2022-12-14T15:39:43.683Z,-1.05
2022-12-14T15:42:17.174Z,-1.03
2022-12-14T15:44:56.252Z,-1.04
2022-12-14T15:47:29.951Z,-1.06
2022-12-14T15:50:32.768Z,-1.03
2022-12-14T15:53:14.717Z,-1.01
2022-12-14T15:55:43.903Z,-1.05
2022-12-14T15:58:36.269Z,-1.06
2022-12-14T16:01:47.450Z,-1.07
2022-12-14T16:04:26.245Z,-1.04
2022-12-14T16:07:18.117Z,-1.04
2022-12-14T16:09:53.782Z,-1.05
2022-12-14T16:12:45.379Z,-1.01
2022-12-14T16:15:28.495Z,-0.97
2022-12-14T16:18:02.332Z,-0.92
2022-12-14T16:20:36.044Z,-0.95
2022-12-14T16:23:13.681Z,-0.91
2022-12-14T16:25:58.280Z,-0.92
2022-12-14T16:28:29.601Z,-0.90
2022-12-14T16:31:24.314Z,-0.87
2022-12-14T16:34:19.987Z,-0.90
2022-12-14T16:37:08.461Z,-0.93
2022-12-14T16:39:47.622Z,-0.98
2022-12-14T16:42:25.147Z,-0.93
2022-12-14T16:44:54.246Z,-0.94
2022-12-14T16:48:01.781Z,-0.94
2022-12-14T16:50:55.450Z,-0.97
2022-12-14T16:53:26.351Z,-1.05
2022-12-14T16:56:16.371Z,-0.98
2022-12-14T16:59:22.915Z,-0.96
2022-12-14T17:01:52.508Z,-0.95
2022-12-14T17:04:21.368Z,-0.94
2022-12-14T17:06:52.832Z,-0.92
2022-12-14T17:09:26.840Z,-0.89
2022-12-14T17:11:58.285Z,-0.91
2022-12-14T17:14:27.756Z,-0.89
2022-12-14T17:17:01.896Z,-0.90
2022-12-14T17:19:33.638Z,-0.91
2022-12-14T17:22:04.485Z,-0.87
2022-12-14T17:24:36.036Z,-0.86
2022-12-14T17:27:05.027Z,-0.83
2022-12-14T17:29:35.709Z,-0.81
2022-12-14T17:32:04.935Z,-0.87
2022-12-14T17:34:47.294Z,-0.88
2022-12-14T17:37:24.382Z,-0.87
2022-12-14T17:39:53.244Z,-0.85
2022-12-14T17:42:22.398Z,-0.81
2022-12-14T17:44:56.689Z,-0.78
2022-12-14T17:47:25.156Z,-0.74
2022-12-14T17:49:53.399Z,-0.72
2022-12-14T17:52:27.259Z,-0.70
2022-12-14T17:54:55.251Z,-0.69
2022-12-14T17:57:27.305Z,-0.74
2022-12-14T18:00:15.045Z,-0.72
2022-12-14T18:02:45.861Z,-0.69
2022-12-14T18:05:20.228Z,-0.70
2022-12-14T18:07:49.486Z,-0.71
2022-12-14T18:10:19.693Z,-0.72
2022-12-14T18:12:48.992Z,-0.69
2022-12-14T18:15:21.418Z,-0.69
2022-12-14T18:17:51.877Z,-0.69
2022-12-14T18:20:20.777Z,-0.71
2022-12-14T18:22:50.079Z,-0.71
2022-12-14T18:25:30.950Z,-0.67
2022-12-14T18:28:01.211Z,-0.67
2022-12-14T18:30:36.827Z,-0.67
2022-12-14T18:33:16.795Z,-0.74
2022-12-14T18:35:46.588Z,-0.73
2022-12-14T18:38:14.772Z,-0.70
2022-12-14T18:40:49.953Z,-0.68
2022-12-14T18:43:24.959Z,-0.64
2022-12-14T18:45:54.336Z,-0.63
2022-12-14T18:48:24.168Z,-0.58
2022-12-14T18:50:54.921Z,-0.55
2022-12-14T18:53:24.946Z,-0.52
2022-12-14T18:55:53.694Z,-0.48
2022-12-14T18:58:27.344Z,-0.45
2022-12-14T19:00:58.956Z,-0.41
2022-12-14T19:03:31.413Z,-0.39
2022-12-14T19:06:34.976Z,-0.37
2022-12-14T19:08:57.277Z,-0.36
2022-12-14T19:11:42.152Z,-0.36
2022-12-14T19:14:11.532Z,-0.34
2022-12-14T19:16:40.271Z,-0.36
2022-12-14T19:19:08.430Z,-0.37
2022-12-14T19:21:36.471Z,-0.37
2022-12-14T19:24:08.847Z,-0.33
2022-12-14T19:26:38.961Z,-0.28
2022-12-14T19:29:09.394Z,-0.26
2022-12-14T19:31:37.662Z,-0.24
2022-12-14T19:34:07.995Z,-0.22
2022-12-14T19:36:36.191Z,-0.19
2022-12-14T19:39:05.047Z,-0.19
2022-12-14T19:41:33.606Z,-0.27
2022-12-14T19:44:01.653Z,-0.26
2022-12-14T19:46:30.480Z,-0.23
2022-12-14T19:49:00.751Z,-0.25
2022-12-14T19:51:30.116Z,-0.24
2022-12-14T19:53:58.190Z,-0.26
2022-12-14T19:56:26.298Z,-0.32
2022-12-14T19:58:57.741Z,-0.42
2022-12-14T20:01:32.689Z,-0.44
2022-12-14T20:04:02.041Z,-0.53
2022-12-14T20:06:30.400Z,-0.55
2022-12-14T20:09:01.298Z,-0.54
2022-12-14T20:11:29.455Z,-0.58
2022-12-14T20:14:02.913Z,-0.58
2022-12-14T20:16:31.782Z,-0.61
2022-12-14T20:19:01.702Z,-0.61
2022-12-14T20:21:31.480Z,-0.60
2022-12-14T20:24:00.641Z,-0.60
2022-12-14T20:26:30.205Z,-0.63
2022-12-14T20:29:05.110Z,-0.63
2022-12-14T20:31:34.575Z,-0.63
2022-12-14T20:34:05.042Z,-0.62
2022-12-14T20:36:33.132Z,-0.64
2022-12-14T20:39:01.847Z,-0.65
2022-12-14T20:41:33.114Z,-0.64
2022-12-14T20:44:02.328Z,-0.63
2022-12-14T20:46:36.890Z,-0.65
2022-12-14T20:49:07.938Z,-0.64
2022-12-14T20:51:38.192Z,-0.64
2022-12-14T20:54:08.839Z,-0.63
2022-12-14T20:56:37.674Z,-0.62
2022-12-14T20:59:07.189Z,-0.67
2022-12-14T21:01:40.803Z,-0.63
2022-12-14T21:04:09.018Z,-0.66
2022-12-14T21:06:39.796Z,-0.64
2022-12-14T21:09:12.140Z,-0.61
2022-12-14T21:12:04.568Z,-0.58
2022-12-14T21:14:35.131Z,-0.55
2022-12-14T21:17:05.201Z,-0.53
2022-12-14T21:19:34.502Z,-0.51
2022-12-14T21:22:05.441Z,-0.50
2022-12-14T21:25:01.751Z,-0.47
2022-12-14T21:27:26.885Z,-0.46
2022-12-14T21:29:55.535Z,-0.42
2022-12-14T21:32:23.720Z,-0.39
2022-12-14T21:34:54.741Z,-0.36
2022-12-14T21:37:23.388Z,-0.35
2022-12-14T21:39:54.934Z,-0.35
2022-12-14T21:42:24.708Z,-0.33
2022-12-14T21:44:55.452Z,-0.32
2022-12-14T21:47:28.994Z,-0.32
2022-12-14T21:49:57.582Z,-0.31
2022-12-14T21:52:27.492Z,-0.32
2022-12-14T21:54:56.076Z,-0.32
2022-12-14T21:57:50.375Z,-0.28
2022-12-14T22:00:20.078Z,-0.26
2022-12-14T22:02:48.457Z,-0.23
2022-12-14T22:05:18.558Z,-0.20
2022-12-14T22:07:47.232Z,-0.17
2022-12-14T22:10:21.226Z,-0.16
2022-12-14T22:12:52.541Z,-0.14
2022-12-14T22:15:20.606Z,-0.11
2022-12-14T22:17:51.923Z,-0.09
2022-12-14T22:20:19.985Z,-0.08
2022-12-14T22:22:49.469Z,-0.09
2022-12-14T22:25:17.425Z,-0.09
2022-12-14T22:27:49.750Z,-0.07
2022-12-14T22:30:18.956Z,-0.08
2022-12-14T22:32:48.457Z,-0.06
2022-12-14T22:35:16.485Z,-0.05
2022-12-14T22:37:44.445Z,-0.03
2022-12-14T22:40:12.590Z,0.00
2022-12-14T22:42:40.470Z,0.01
2022-12-14T22:45:09.126Z,0.04
2022-12-14T22:47:37.037Z,0.04
2022-12-14T22:50:05.978Z,0.05
2022-12-14T22:52:34.110Z,0.06
2022-12-14T22:55:02.079Z,0.09
2022-12-14T22:57:30.864Z,0.11
2022-12-14T23:00:07.861Z,0.13
2022-12-14T23:02:36.056Z,0.12
2022-12-14T23:05:06.873Z,0.15
2022-12-14T23:07:35.317Z,0.17
2022-12-14T23:10:23.333Z,0.14
2022-12-14T23:13:09.947Z,0.13
2022-12-14T23:15:56.171Z,0.14
2022-12-14T23:18:42.690Z,0.14
2022-12-14T23:21:30.486Z,0.14
2022-12-14T23:24:17.036Z,0.12
2022-12-14T23:27:09.129Z,0.14
2022-12-14T23:29:56.673Z,0.14
2022-12-14T23:32:43.297Z,0.14
2022-12-14T23:35:29.745Z,0.16
2022-12-14T23:38:22.439Z,0.20
2022-12-14T23:41:08.997Z,0.23
2022-12-14T23:43:55.726Z,0.25
2022-12-14T23:46:42.458Z,0.30
2022-12-14T23:49:29.128Z,0.37
2022-12-14T23:52:15.880Z,0.43
2022-12-14T23:55:04.955Z,0.49
2022-12-14T23:57:51.477Z,0.53
